createdAt,value
2024-03-12T00:00:07.560Z,0
2024-03-12T00:01:38.140Z,0
2024-03-12T00:03:16.773Z,0
2024-03-12T00:04:47.304Z,0
2024-03-12T00:06:17.785Z,0
2024-03-12T00:07:48.302Z,0
2024-03-12T00:09:18.834Z,0
2024-03-12T00:10:49.324Z,0
2024-03-12T00:12:04.456Z,0
2024-03-12T00:13:19.588Z,0
2024-03-12T00:14:50.116Z,0
2024-03-12T00:16:20.637Z,0
2024-03-12T00:17:51.208Z,0
2024-03-12T00:19:29.843Z,0
2024-03-12T00:21:00.353Z,0
2024-03-12T00:22:30.856Z,0
2024-03-12T00:24:01.387Z,0
2024-03-12T00:25:31.878Z,0
2024-03-12T00:27:02.402Z,0
2024-03-12T00:28:17.535Z,0
2024-03-12T00:29:32.662Z,0
2024-03-12T00:31:03.152Z,0
2024-03-12T00:32:33.682Z,0
2024-03-12T00:34:04.204Z,0
2024-03-12T00:35:34.717Z,0
2024-03-12T00:37:05.208Z,0
2024-03-12T00:38:35.714Z,0
2024-03-12T00:40:06.262Z,0
2024-03-12T00:41:36.750Z,0
2024-03-12T00:43:07.281Z,0
2024-03-12T00:44:22.412Z,0
2024-03-12T00:45:37.507Z,0
2024-03-12T00:47:08.033Z,0
2024-03-12T00:48:38.570Z,0
2024-03-12T00:50:09.061Z,0
2024-03-12T00:51:39.575Z,0
2024-03-12T00:53:10.108Z,0
2024-03-12T00:54:40.613Z,0
2024-03-12T00:56:11.105Z,0
2024-03-12T00:57:41.646Z,0
2024-03-12T00:59:12.144Z,0
2024-03-12T01:00:27.276Z,0
2024-03-12T01:01:42.382Z,0
2024-03-12T01:03:12.907Z,0
2024-03-12T01:04:43.415Z,0
2024-03-12T01:07:44.465Z,0
2024-03-12T01:09:14.955Z,0
2024-03-12T01:10:45.475Z,0
2024-03-12T01:12:15.980Z,0
2024-03-12T01:13:46.492Z,0
2024-03-12T01:15:17.012Z,0
2024-03-12T01:16:31.726Z,0
2024-03-12T01:17:46.836Z,0
2024-03-12T01:19:17.338Z,0
2024-03-12T01:20:47.853Z,0
2024-03-12T01:22:18.367Z,0
2024-03-12T01:23:48.902Z,0
2024-03-12T01:25:19.395Z,0
2024-03-12T01:26:49.925Z,0
2024-03-12T01:28:20.436Z,0
2024-03-12T01:29:50.937Z,0
2024-03-12T01:31:21.472Z,0
2024-03-12T01:32:36.589Z,0
2024-03-12T01:33:51.730Z,0
2024-03-12T01:35:22.216Z,0
2024-03-12T01:36:52.719Z,0
2024-03-12T01:38:23.239Z,0
2024-03-12T01:39:53.755Z,0
2024-03-12T01:41:24.273Z,0
2024-03-12T01:42:54.796Z,0
2024-03-12T01:45:55.821Z,0
2024-03-12T01:47:26.316Z,0
2024-03-12T01:48:41.480Z,0
2024-03-12T01:49:56.577Z,0
2024-03-12T01:51:27.092Z,0
2024-03-12T01:52:57.625Z,0
2024-03-12T01:54:28.118Z,0
2024-03-12T01:55:58.647Z,0
2024-03-12T01:57:29.155Z,0
2024-03-12T01:58:59.651Z,0
2024-03-12T02:00:30.157Z,0
2024-03-12T02:02:00.700Z,0
2024-03-12T02:04:46.332Z,0
2024-03-12T02:06:01.468Z,0
2024-03-12T02:07:31.950Z,0
2024-03-12T02:09:02.479Z,0
2024-03-12T02:10:32.999Z,0
2024-03-12T02:12:03.490Z,0
2024-03-12T02:13:34.010Z,0
2024-03-12T02:15:04.551Z,0
2024-03-12T02:16:35.048Z,0
2024-03-12T02:18:05.545Z,0
2024-03-12T02:19:36.093Z,0
2024-03-12T02:20:51.201Z,0
2024-03-12T02:25:07.362Z,0
2024-03-12T02:26:37.935Z,0
2024-03-12T02:29:47.069Z,0
2024-03-12T02:31:17.583Z,0
2024-03-12T02:34:18.606Z,0
2024-03-12T02:35:49.143Z,0
2024-03-12T02:37:04.272Z,0
2024-03-12T02:39:49.908Z,0
2024-03-12T02:41:20.414Z,0
2024-03-12T02:42:50.924Z,0
2024-03-12T02:44:21.454Z,0
2024-03-12T02:45:52.022Z,0
2024-03-12T02:47:30.657Z,0
2024-03-12T02:49:01.149Z,0
2024-03-12T02:50:31.695Z,0
2024-03-12T02:53:17.303Z,0
2024-03-12T02:54:32.431Z,0
2024-03-12T02:56:02.984Z,0
2024-03-12T02:57:33.476Z,0
2024-03-12T02:59:03.979Z,0
2024-03-12T03:00:34.525Z,0
2024-03-12T03:05:06.031Z,0
2024-03-12T03:06:36.563Z,0
2024-03-12T03:08:07.054Z,0
2024-03-12T03:09:22.218Z,0
2024-03-12T03:12:07.816Z,0
2024-03-12T03:13:38.328Z,0
2024-03-12T03:15:08.875Z,0
2024-03-12T03:18:09.900Z,0
2024-03-12T03:19:40.389Z,0
2024-03-12T03:21:10.894Z,0
2024-03-12T03:22:41.445Z,0
2024-03-12T03:24:11.935Z,0
2024-03-12T03:25:26.695Z,0
2024-03-12T03:26:41.841Z,0
2024-03-12T03:28:12.344Z,0
2024-03-12T03:29:42.852Z,0
2024-03-12T03:32:43.893Z,0
2024-03-12T03:34:14.390Z,0
2024-03-12T03:37:15.449Z,0
2024-03-12T03:38:45.964Z,0
2024-03-12T03:41:46.988Z,0
2024-03-12T03:43:02.084Z,0
2024-03-12T03:44:16.779Z,0
2024-03-12T03:45:47.292Z,0
2024-03-12T03:47:17.799Z,0
2024-03-12T03:48:48.347Z,0
2024-03-12T03:51:49.368Z,0
2024-03-12T03:57:51.423Z,0
2024-03-12T03:59:06.564Z,0
2024-03-12T04:00:21.659Z,0
2024-03-12T04:01:52.179Z,0
2024-03-12T04:03:22.679Z,0
2024-03-12T04:04:53.192Z,0
2024-03-12T04:06:23.701Z,0
2024-03-12T04:07:54.224Z,0
2024-03-12T04:09:24.732Z,0
2024-03-12T04:10:55.266Z,0
2024-03-12T04:12:25.791Z,0
2024-03-12T04:13:56.277Z,0
2024-03-12T04:15:11.390Z,0
2024-03-12T04:16:26.550Z,0
2024-03-12T04:17:57.050Z,0
2024-03-12T04:20:58.057Z,0
2024-03-12T04:22:28.570Z,0
2024-03-12T04:25:29.639Z,0
2024-03-12T04:27:00.146Z,0
2024-03-12T04:28:30.623Z,0
2024-03-12T04:30:01.139Z,0
2024-03-12T04:31:16.307Z,0
2024-03-12T04:32:31.406Z,0
2024-03-12T04:34:01.918Z,0
2024-03-12T04:35:32.428Z,0
2024-03-12T04:37:02.970Z,0
2024-03-12T04:38:33.451Z,0
2024-03-12T04:40:03.989Z,0
2024-03-12T04:41:34.478Z,0
2024-03-12T04:43:05.002Z,0
2024-03-12T04:44:35.532Z,0
2024-03-12T04:46:06.012Z,0
2024-03-12T04:47:21.185Z,0
2024-03-12T04:48:36.263Z,0
2024-03-12T04:50:06.786Z,0
2024-03-12T04:51:37.386Z,0
2024-03-12T04:53:16.005Z,0
2024-03-12T04:54:46.523Z,0
2024-03-12T04:56:17.022Z,1
2024-03-12T04:57:47.541Z,2
2024-03-12T04:59:18.086Z,1
2024-03-12T05:00:48.609Z,2
2024-03-12T05:02:19.092Z,3
2024-03-12T05:03:34.150Z,3
2024-03-12T05:04:49.253Z,4
2024-03-12T05:06:19.768Z,5
2024-03-12T05:07:50.367Z,5
2024-03-12T05:09:28.959Z,8
2024-03-12T05:10:59.499Z,11
2024-03-12T05:12:29.974Z,8
2024-03-12T05:14:00.500Z,15
2024-03-12T05:15:31.034Z,22
2024-03-12T05:17:01.514Z,25
2024-03-12T05:18:32.059Z,30
2024-03-12T05:19:47.105Z,43
2024-03-12T05:21:02.216Z,53
2024-03-12T05:22:32.725Z,63
2024-03-12T05:24:03.213Z,72
2024-03-12T05:25:33.719Z,90
2024-03-12T05:28:34.745Z,134
2024-03-12T05:30:05.259Z,156
2024-03-12T05:31:35.781Z,186
2024-03-12T05:33:06.322Z,210
2024-03-12T05:34:36.836Z,237
2024-03-12T05:35:51.898Z,271
2024-03-12T05:37:06.959Z,306
2024-03-12T05:38:37.453Z,340
2024-03-12T05:40:07.998Z,372
2024-03-12T05:41:38.529Z,411
2024-03-12T05:43:08.996Z,447
2024-03-12T05:44:39.542Z,492
2024-03-12T05:46:10.026Z,543
2024-03-12T05:47:40.576Z,588
2024-03-12T05:49:11.089Z,643
2024-03-12T05:50:41.598Z,685
2024-03-12T05:51:56.679Z,730
2024-03-12T05:53:11.751Z,785
2024-03-12T05:54:42.225Z,825
2024-03-12T05:56:12.749Z,869
2024-03-12T05:57:43.257Z,923
2024-03-12T05:59:13.793Z,963
2024-03-12T06:00:44.292Z,1011
2024-03-12T06:02:14.793Z,1058
2024-03-12T06:03:45.298Z,1107
2024-03-12T06:06:46.331Z,1189
2024-03-12T06:08:01.442Z,1228
2024-03-12T06:09:16.520Z,1276
2024-03-12T06:10:46.992Z,1314
2024-03-12T06:12:17.506Z,1351
2024-03-12T06:13:48.052Z,1397
2024-03-12T06:15:18.536Z,1456
2024-03-12T06:16:49.050Z,1522
2024-03-12T06:18:19.581Z,1588
2024-03-12T06:19:50.065Z,1659
2024-03-12T06:21:20.586Z,1738
2024-03-12T06:22:51.093Z,1817
2024-03-12T06:24:06.180Z,1892
2024-03-12T06:25:21.250Z,1985
2024-03-12T06:26:51.747Z,2044
2024-03-12T06:28:22.266Z,2101
2024-03-12T06:31:23.331Z,2256
2024-03-12T06:32:53.837Z,2325
2024-03-12T06:34:24.316Z,2393
2024-03-12T06:35:54.828Z,2469
2024-03-12T06:37:25.393Z,2539
2024-03-12T06:38:55.874Z,2611
2024-03-12T06:40:10.942Z,2674
2024-03-12T06:41:26.001Z,2758
2024-03-12T06:42:56.520Z,2823
2024-03-12T06:44:27.042Z,2871
2024-03-12T06:45:57.540Z,2944
2024-03-12T06:47:28.091Z,3005
2024-03-12T06:48:58.575Z,3063
2024-03-12T06:50:29.088Z,3138
2024-03-12T06:51:59.593Z,3197
2024-03-12T06:53:30.111Z,3253
2024-03-12T06:55:00.622Z,3299
2024-03-12T06:56:15.692Z,3370
2024-03-12T06:57:30.766Z,3429
2024-03-12T07:00:31.791Z,3513
2024-03-12T07:02:02.311Z,3576
2024-03-12T07:09:34.921Z,3855
2024-03-12T07:11:05.437Z,3915
2024-03-12T07:12:20.498Z,3963
2024-03-12T07:19:37.637Z,4149
2024-03-12T07:21:08.227Z,4188
2024-03-12T07:25:47.866Z,4299
2024-03-12T07:28:33.457Z,4416
2024-03-12T07:31:19.170Z,1531
2024-03-12T07:34:20.188Z,11504
2024-03-12T07:38:51.726Z,3132
2024-03-12T07:40:22.246Z,12542
2024-03-12T07:43:23.279Z,14030
2024-03-12T07:48:54.449Z,20674
2024-03-12T07:53:25.971Z,17268
2024-03-12T07:54:56.486Z,16701
2024-03-12T07:57:57.517Z,15841
2024-03-12T08:00:43.109Z,18357
2024-03-12T08:08:00.222Z,21129
2024-03-12T08:12:31.760Z,18221
2024-03-12T08:16:47.849Z,16633
2024-03-12T08:29:35.186Z,16767
2024-03-12T08:31:53.918Z,14446
2024-03-12T08:33:09.902Z,15708
2024-03-12T08:42:12.961Z,19068
2024-03-12T08:45:13.978Z,17525
2024-03-12T08:48:15.017Z,27465
2024-03-12T08:51:16.023Z,13193
2024-03-12T08:57:18.072Z,17305
2024-03-12T09:09:22.197Z,12504
2024-03-12T09:15:24.245Z,11532
2024-03-12T09:18:25.261Z,11953
2024-03-12T09:24:27.296Z,11154
2024-03-12T09:27:28.331Z,10998
2024-03-12T09:33:30.391Z,10552
2024-03-12T09:39:32.436Z,9355
2024-03-12T09:42:33.461Z,10563
2024-03-12T09:51:36.497Z,9714
2024-03-12T10:00:39.565Z,3427
2024-03-12T10:02:24.635Z,8445
2024-03-12T10:03:40.613Z,10810
2024-03-12T10:06:41.636Z,10051
2024-03-12T10:09:42.681Z,3530
2024-03-12T10:12:43.700Z,9520
2024-03-12T10:15:44.707Z,4636
2024-03-12T10:18:45.754Z,5444
2024-03-12T10:21:46.756Z,6070
2024-03-12T10:24:47.778Z,5341
2024-03-12T10:27:48.787Z,6504
2024-03-12T10:30:49.819Z,7234
2024-03-12T10:32:34.911Z,5243
2024-03-12T10:33:50.898Z,4493
2024-03-12T10:36:51.901Z,4601
2024-03-12T10:39:52.927Z,4923
2024-03-12T10:42:53.947Z,5090
2024-03-12T10:45:54.951Z,5074
2024-03-12T10:48:55.982Z,4323
2024-03-12T10:51:57.005Z,3762
2024-03-12T10:54:58.039Z,1986
2024-03-12T10:57:59.083Z,10010
2024-03-12T11:01:00.085Z,7512
2024-03-12T11:04:01.109Z,5158
2024-03-12T11:07:02.150Z,3914
2024-03-12T11:10:03.187Z,3693
2024-03-12T11:13:04.197Z,3195
2024-03-12T11:16:05.234Z,3576
2024-03-12T11:19:06.244Z,3178
2024-03-12T11:22:07.294Z,2554
2024-03-12T11:25:08.279Z,15539
2024-03-12T11:28:09.307Z,2372
2024-03-12T11:31:10.323Z,11946
2024-03-12T11:32:55.390Z,6371
2024-03-12T11:34:11.371Z,4337
2024-03-12T11:37:12.397Z,5851
2024-03-12T11:40:13.423Z,4797
2024-03-12T11:43:14.475Z,7362
2024-03-12T11:46:15.462Z,2134
2024-03-12T11:49:16.516Z,12293
2024-03-12T11:52:17.502Z,2467
2024-03-12T11:55:18.525Z,11217
2024-03-12T11:58:19.574Z,2143
2024-03-12T12:01:20.589Z,10667
2024-03-12T12:03:05.677Z,5606
2024-03-12T12:04:21.642Z,4151
2024-03-12T12:07:22.642Z,4042
2024-03-12T12:10:23.677Z,4731
2024-03-12T12:13:24.700Z,3813
2024-03-12T12:16:25.704Z,5109
2024-03-12T12:19:26.730Z,7219
2024-03-12T12:22:27.790Z,2392
2024-03-12T12:25:28.810Z,8315
2024-03-12T12:28:29.806Z,10119
2024-03-12T12:31:30.825Z,7227
2024-03-12T12:33:15.919Z,6059
2024-03-12T12:34:31.906Z,5333
2024-03-12T12:37:32.892Z,5019
2024-03-12T12:40:33.908Z,5024
2024-03-12T12:43:34.975Z,4577
2024-03-12T12:46:35.956Z,5042
2024-03-12T12:49:36.991Z,4802
2024-03-12T12:52:38.039Z,4958
2024-03-12T12:55:39.030Z,5431
2024-03-12T12:58:40.083Z,5174
2024-03-12T13:01:41.068Z,5437
2024-03-12T13:03:26.000Z,5191
2024-03-12T13:04:42.131Z,4727
2024-03-12T13:07:43.145Z,5225
2024-03-12T13:10:44.163Z,5417
2024-03-12T13:13:45.231Z,5249
2024-03-12T13:16:46.207Z,5495
2024-03-12T13:19:47.243Z,5249
2024-03-12T13:22:48.288Z,4869
2024-03-12T13:25:49.276Z,4272
2024-03-12T13:28:50.304Z,3501
2024-03-12T13:31:51.337Z,2502
2024-03-12T13:33:36.384Z,1390
2024-03-12T13:34:52.374Z,1912
2024-03-12T13:37:53.422Z,2544
2024-03-12T13:40:54.445Z,2728
2024-03-12T13:43:55.444Z,3242
2024-03-12T13:46:56.471Z,3339
2024-03-12T13:49:57.481Z,3447
2024-03-12T13:52:58.516Z,4193
2024-03-12T13:55:59.565Z,3881
2024-03-12T13:59:00.551Z,3628
2024-03-12T14:02:01.606Z,4160
2024-03-12T14:03:46.678Z,3778
2024-03-12T14:05:02.614Z,3483
2024-03-12T14:08:03.650Z,3611
2024-03-12T14:11:04.659Z,3654
2024-03-12T14:14:05.692Z,3763
2024-03-12T14:17:06.743Z,3453
2024-03-12T14:20:07.766Z,3370
2024-03-12T14:23:08.748Z,3536
2024-03-12T14:26:09.779Z,3464
2024-03-12T14:29:10.807Z,2980
2024-03-12T14:32:11.870Z,2866
2024-03-12T14:33:56.901Z,2907
2024-03-12T14:35:12.872Z,2743
2024-03-12T14:41:14.918Z,2400
2024-03-12T14:44:15.943Z,2526
2024-03-12T14:47:16.971Z,2039
2024-03-12T14:50:18.023Z,1904
2024-03-12T14:53:19.013Z,2118
2024-03-12T14:56:20.023Z,2243
2024-03-12T14:59:21.045Z,2224
2024-03-12T15:02:22.076Z,2143
2024-03-12T15:04:07.134Z,2097
2024-03-12T15:05:23.114Z,1963
2024-03-12T15:08:24.140Z,1879
2024-03-12T15:11:25.194Z,1886
2024-03-12T15:14:26.191Z,1844
2024-03-12T15:17:27.251Z,1690
2024-03-12T15:20:28.229Z,1702
2024-03-12T15:23:29.254Z,1668
2024-03-12T15:26:30.274Z,1592
2024-03-12T15:29:31.296Z,1441
2024-03-12T15:32:32.321Z,1392
2024-03-12T15:34:17.389Z,1208
2024-03-12T15:35:33.407Z,1063
2024-03-12T15:38:34.431Z,1020
2024-03-12T15:41:35.442Z,1041
2024-03-12T15:44:36.444Z,934
2024-03-12T15:47:37.455Z,845
2024-03-12T15:50:38.487Z,759
2024-03-12T15:53:39.554Z,648
2024-03-12T15:56:40.578Z,568
2024-03-12T15:59:41.606Z,554
2024-03-12T16:02:42.572Z,479
2024-03-12T16:04:27.634Z,409
2024-03-12T16:05:43.666Z,383
2024-03-12T16:08:44.636Z,373
2024-03-12T16:11:45.661Z,384
2024-03-12T16:14:46.679Z,303
2024-03-12T16:17:47.707Z,274
2024-03-12T16:20:48.725Z,232
2024-03-12T16:23:49.808Z,210
2024-03-12T16:26:50.772Z,198
2024-03-12T16:29:51.797Z,172
2024-03-12T16:32:52.820Z,183
2024-03-12T16:34:37.881Z,174
2024-03-12T16:35:53.864Z,159
2024-03-12T16:38:54.880Z,144
2024-03-12T16:41:55.902Z,140
2024-03-12T16:44:56.932Z,125
2024-03-12T16:47:57.992Z,114
2024-03-12T16:50:58.978Z,105
2024-03-12T16:57:01.063Z,71
2024-03-12T17:00:02.085Z,63
2024-03-12T17:03:03.071Z,57
2024-03-12T17:04:48.147Z,49
2024-03-12T17:06:04.116Z,39
2024-03-12T17:09:05.173Z,34
2024-03-12T17:12:06.160Z,34
2024-03-12T17:15:07.172Z,25
2024-03-12T17:18:08.208Z,22
2024-03-12T17:21:09.227Z,16
2024-03-12T17:24:10.258Z,8
2024-03-12T17:27:11.267Z,5
2024-03-12T17:30:12.289Z,4
2024-03-12T17:33:13.317Z,1
2024-03-12T17:34:58.378Z,1
2024-03-12T17:36:14.418Z,0
2024-03-12T17:39:15.442Z,0
2024-03-12T17:42:16.456Z,0
2024-03-12T17:45:17.485Z,0
2024-03-12T17:48:18.515Z,0
2024-03-12T17:51:19.518Z,0
2024-03-12T17:54:20.542Z,0
2024-03-12T17:57:21.568Z,0
2024-03-12T18:00:22.593Z,0
2024-03-12T18:03:23.620Z,0
2024-03-12T18:05:08.626Z,0
2024-03-12T18:06:24.809Z,0
2024-03-12T18:09:25.831Z,0
2024-03-12T18:12:26.852Z,0
2024-03-12T18:15:27.878Z,0
2024-03-12T18:18:28.915Z,0
2024-03-12T18:21:29.942Z,0
2024-03-12T18:24:30.945Z,0
2024-03-12T18:27:31.987Z,0
2024-03-12T18:30:33.000Z,0
2024-03-12T18:33:34.035Z,0
2024-03-12T18:35:18.884Z,0
2024-03-12T18:36:35.048Z,0
2024-03-12T18:39:36.069Z,0
2024-03-12T18:45:38.111Z,0
2024-03-12T18:48:39.148Z,0
2024-03-12T18:51:40.155Z,0
2024-03-12T18:54:41.182Z,0
2024-03-12T18:57:42.205Z,0
2024-03-12T19:00:43.243Z,0
2024-03-12T19:03:44.255Z,0
2024-03-12T19:05:29.132Z,0
2024-03-12T19:06:45.282Z,0
2024-03-12T19:09:46.309Z,0
2024-03-12T19:12:47.322Z,0
2024-03-12T19:15:48.346Z,0
2024-03-12T19:18:49.372Z,0
2024-03-12T19:21:50.397Z,0
2024-03-12T19:24:51.417Z,0
2024-03-12T19:27:52.439Z,0
2024-03-12T19:30:53.461Z,0
2024-03-12T19:33:54.488Z,0
2024-03-12T19:35:39.374Z,0
2024-03-12T19:36:55.519Z,0
2024-03-12T19:39:56.549Z,0
2024-03-12T19:42:57.568Z,0
2024-03-12T19:45:58.582Z,0
2024-03-12T19:48:59.607Z,0
2024-03-12T19:52:00.629Z,0
2024-03-12T19:55:01.659Z,0
2024-03-12T19:58:02.682Z,0
2024-03-12T20:01:03.708Z,0
2024-03-12T20:04:04.734Z,0
2024-03-12T20:05:49.632Z,0
2024-03-12T20:07:05.755Z,0
2024-03-12T20:10:06.782Z,0
2024-03-12T20:13:07.796Z,0
2024-03-12T20:16:08.834Z,0
2024-03-12T20:19:09.843Z,0
2024-03-12T20:22:10.871Z,0
2024-03-12T20:25:11.902Z,0
2024-03-12T20:28:12.929Z,0
2024-03-12T20:31:13.945Z,0
2024-03-12T20:34:14.971Z,0
2024-03-12T20:35:59.896Z,0
2024-03-12T20:37:16.008Z,0
2024-03-12T20:40:17.028Z,0
2024-03-12T20:43:18.038Z,0
2024-03-12T20:46:19.068Z,0
2024-03-12T20:49:20.101Z,0
2024-03-12T20:52:21.120Z,0
2024-03-12T20:55:22.139Z,0
2024-03-12T20:58:23.163Z,0
2024-03-12T21:01:24.182Z,0
2024-03-12T21:04:25.212Z,0
2024-03-12T21:06:10.161Z,0
2024-03-12T21:07:26.247Z,0
2024-03-12T21:10:27.252Z,0
2024-03-12T21:13:28.292Z,0
2024-03-12T21:16:29.311Z,0
2024-03-12T21:19:30.321Z,0
2024-03-12T21:22:31.363Z,0
2024-03-12T21:25:32.372Z,0
2024-03-12T21:28:33.395Z,0
2024-03-12T21:31:34.429Z,0
2024-03-12T21:34:35.452Z,0
2024-03-12T21:36:20.411Z,0
2024-03-12T21:37:36.463Z,0
2024-03-12T21:40:37.492Z,0
2024-03-12T21:43:38.518Z,0
2024-03-12T21:46:39.539Z,0
2024-03-12T21:49:40.558Z,0
2024-03-12T21:55:42.620Z,0
2024-03-12T21:58:43.636Z,0
2024-03-12T22:01:44.661Z,0
2024-03-12T22:04:45.687Z,0
2024-03-12T22:06:30.669Z,0
2024-03-12T22:07:46.713Z,0
2024-03-12T22:10:47.727Z,0
2024-03-12T22:13:48.778Z,0
2024-03-12T22:16:49.795Z,0
2024-03-12T22:19:50.795Z,0
2024-03-12T22:22:51.818Z,0
2024-03-12T22:25:52.842Z,0
2024-03-12T22:28:53.863Z,0
2024-03-12T22:31:54.905Z,0
2024-03-12T22:34:55.915Z,0
2024-03-12T22:36:40.917Z,0
2024-03-12T22:37:56.940Z,0
2024-03-12T22:40:57.965Z,0
2024-03-12T22:43:58.984Z,0
2024-03-12T22:47:00.010Z,0
2024-03-12T22:50:01.033Z,0
2024-03-12T22:53:02.072Z,0
2024-03-12T22:56:03.098Z,0
2024-03-12T22:59:04.106Z,0
2024-03-12T23:02:05.126Z,0
2024-03-12T23:05:06.158Z,0
2024-03-12T23:06:51.172Z,0
2024-03-12T23:08:07.212Z,0
2024-03-12T23:11:08.232Z,0
2024-03-12T23:14:09.249Z,0
2024-03-12T23:17:10.291Z,0
2024-03-12T23:20:11.306Z,0
2024-03-12T23:23:12.319Z,0
2024-03-12T23:26:13.349Z,0
2024-03-12T23:29:14.364Z,0
2024-03-12T23:32:15.392Z,0
2024-03-12T23:35:16.416Z,0
2024-03-12T23:37:01.426Z,0
2024-03-12T23:38:17.462Z,0
2024-03-12T23:41:18.477Z,0
2024-03-12T23:44:19.512Z,0
2024-03-12T23:47:20.543Z,0
2024-03-12T23:50:21.549Z,0
2024-03-12T23:53:22.589Z,0
2024-03-12T23:56:23.597Z,0
2024-03-12T23:59:24.629Z,0
